Time;durP1;ratioP1;P1;durP2;ratioP2;P2;SDS_P1;SDS_P2;PMS_P1;PMS_P2;Temp;Humidity;BMP_temperature;BMP_pressure;BME280_temperature;BME280_humidity;BME280_pressure;Samples;Min_cycle;Max_cycle;Signal;HPM_P1;HPM_P2
2023/11/16 00:01:49;;;;;;;13.20;2.35;;;;;;;14.30;65.05;101637.50;4972732;28;20031;-48
2023/11/16 00:04:15;;;;;;;12.82;2.20;;;;;;;14.44;64.59;101644.69;4972355;28;20043;-50
2023/11/16 00:06:40;;;;;;;11.65;2.10;;;;;;;14.34;65.53;101647.16;4972910;28;20106;-48
2023/11/16 00:09:06;;;;;;;12.90;2.50;;;;;;;14.01;66.44;101653.81;4972021;28;20042;-46
2023/11/16 00:11:31;;;;;;;8.45;2.30;;;;;;;14.30;65.48;101658.47;4972299;28;20042;-46
2023/11/16 00:13:56;;;;;;;14.52;2.50;;;;;;;14.49;65.15;101656.09;4972685;28;20121;-44
2023/11/16 00:16:22;;;;;;;12.35;2.90;;;;;;;14.29;65.63;101647.09;4972197;28;20117;-44
2023/11/16 00:18:47;;;;;;;9.70;2.50;;;;;;;14.57;64.64;101641.31;4972241;28;20118;-48
2023/11/16 00:21:12;;;;;;;13.20;2.80;;;;;;;14.91;63.74;101645.09;4971763;28;20497;-45
2023/11/16 00:23:38;;;;;;;11.80;2.20;;;;;;;14.44;65.37;101651.69;4972447;28;20058;-46
2023/11/16 00:26:03;;;;;;;10.70;2.60;;;;;;;14.64;64.60;101654.50;4954420;28;20490;-51
2023/11/16 00:28:29;;;;;;;9.55;2.25;;;;;;;14.02;66.86;101658.19;4972327;28;20122;-46
2023/11/16 00:30:55;;;;;;;10.05;2.00;;;;;;;14.56;65.06;101665.78;4972014;28;20082;-45
2023/11/16 00:33:20;;;;;;;8.25;1.85;;;;;;;14.20;66.74;101654.91;4971974;28;20022;-46
2023/11/16 00:35:46;;;;;;;8.35;1.73;;;;;;;14.27;66.75;101659.34;4972782;28;20401;-49
2023/11/16 00:38:13;;;;;;;9.63;2.08;;;;;;;14.30;67.42;101656.75;4971638;28;20038;-45
2023/11/16 00:40:38;;;;;;;8.82;2.00;;;;;;;14.26;67.18;101662.81;4972559;28;20033;-48
2023/11/16 00:43:05;;;;;;;8.50;1.52;;;;;;;14.17;68.01;101670.56;4971973;28;20035;-47
2023/11/16 00:45:31;;;;;;;9.55;1.58;;;;;;;14.22;67.82;101661.00;4973230;28;20062;-46
2023/11/16 00:47:56;;;;;;;8.18;1.73;;;;;;;14.30;67.96;101661.09;4972694;28;20066;-48
2023/11/16 00:50:22;;;;;;;11.80;1.60;;;;;;;14.18;69.49;101662.72;4972482;28;20049;-45
2023/11/16 00:52:48;;;;;;;5.00;1.40;;;;;;;14.26;69.26;101665.44;4973107;28;20031;-45
2023/11/16 00:55:15;;;;;;;10.07;1.45;;;;;;;13.63;71.91;101671.66;4972297;28;20142;-45
2023/11/16 00:57:40;;;;;;;7.53;1.42;;;;;;;13.71;71.37;101675.28;4972156;28;20047;-45
2023/11/16 01:00:10;;;;;;;5.18;1.00;;;;;;;13.86;71.14;101671.06;4971235;28;20101;-45
2023/11/16 01:02:36;;;;;;;9.35;1.40;;;;;;;13.83;71.01;101671.94;4971542;28;20038;-45
2023/11/16 01:05:02;;;;;;;6.97;1.10;;;;;;;13.72;71.53;101669.16;4970896;28;20127;-47
2023/11/16 01:07:27;;;;;;;4.60;0.98;;;;;;;13.99;70.68;101667.75;4971980;28;20462;-48
2023/11/16 01:09:53;;;;;;;7.95;1.20;;;;;;;13.72;71.39;101674.38;4971605;28;20042;-45
2023/11/16 01:12:18;;;;;;;6.22;1.08;;;;;;;13.55;71.94;101667.16;4971492;28;20128;-44
2023/11/16 01:14:45;;;;;;;7.97;1.33;;;;;;;13.70;71.72;101676.13;4971444;28;20038;-44
2023/11/16 01:17:35;;;;;;;3.00;0.70;;;;;;;13.77;70.66;101674.47;4971402;28;20043;-46
2023/11/16 01:20:05;;;;;;;7.22;1.08;;;;;;;13.87;71.01;101665.84;4970790;28;20690;-45
2023/11/16 01:22:40;;;;;;;6.40;0.82;;;;;;;13.34;72.46;101668.63;4973446;28;20073;-45
2023/11/16 01:25:14;;;;;;;6.03;0.68;;;;;;;13.66;71.29;101669.06;4972689;28;20548;-44
2023/11/16 01:27:43;;;;;;;;;;;;;;;13.18;74.06;101673.59;4973025;28;20062;-43
2023/11/16 01:30:10;;;;;;;5.60;0.77;;;;;;;13.64;71.95;101667.31;4971060;28;19921;-44
2023/11/16 01:32:35;;;;;;;5.72;0.75;;;;;;;13.46;73.49;101673.16;4971170;28;20065;-46
2023/11/16 01:35:03;;;;;;;4.10;0.60;;;;;;;13.56;72.91;101680.28;4970615;28;20126;-49
2023/11/16 01:37:28;;;;;;;2.38;0.60;;;;;;;13.71;72.62;101675.28;4970946;28;20569;-42
2023/11/16 01:39:53;;;;;;;6.00;0.65;;;;;;;13.91;71.78;101665.03;4971645;28;20141;-46
2023/11/16 01:42:19;;;;;;;8.25;0.77;;;;;;;13.71;72.13;101670.03;4970287;28;20042;-46
2023/11/16 01:44:44;;;;;;;3.80;0.70;;;;;;;13.75;72.70;101673.56;4970895;28;20038;-44
2023/11/16 01:47:13;;;;;;;8.70;0.80;;;;;;;13.75;72.58;101678.81;4953113;28;20429;-44
2023/11/16 01:49:39;;;;;;;6.70;0.75;;;;;;;13.97;71.67;101666.84;4970879;28;20402;-50
2023/11/16 01:52:06;;;;;;;3.15;0.60;;;;;;;13.98;71.31;101664.25;4970872;28;20035;-45
2023/11/16 01:54:34;;;;;;;6.28;1.00;;;;;;;13.66;72.69;101663.81;4971087;28;20045;-46
2023/11/16 01:57:00;;;;;;;4.53;0.80;;;;;;;13.71;72.53;101672.66;4970284;28;20042;-47
2023/11/16 01:59:28;;;;;;;4.43;0.57;;;;;;;13.53;73.66;101676.75;4970788;28;20031;-45
2023/11/16 02:01:54;;;;;;;5.28;0.85;;;;;;;13.68;73.31;101675.22;4970962;28;20116;-44
2023/11/16 02:04:19;;;;;;;5.03;0.75;;;;;;;13.89;72.31;101676.38;4970462;28;20102;-45
2023/11/16 02:06:45;;;;;;;3.20;0.70;;;;;;;14.00;71.76;101680.88;4970569;28;20133;-44
2023/11/16 02:09:11;;;;;;;5.63;0.80;;;;;;;14.02;71.75;101681.78;4970192;28;20125;-47
2023/11/16 02:11:37;;;;;;;5.93;0.90;;;;;;;13.93;72.20;101680.78;4970641;28;20409;-47
2023/11/16 02:14:02;;;;;;;5.70;0.80;;;;;;;13.83;72.75;101685.03;4970050;28;20038;-48
2023/11/16 02:16:28;;;;;;;3.55;1.02;;;;;;;13.96;72.25;101683.44;4970484;28;20383;-46
2023/11/16 02:18:54;;;;;;;4.07;0.80;;;;;;;13.98;72.16;101682.59;4970704;28;20039;-48
2023/11/16 02:21:19;;;;;;;9.10;1.02;;;;;;;14.02;71.95;101680.91;4970370;28;20485;-45
2023/11/16 02:23:46;;;;;;;8.38;1.00;;;;;;;14.00;72.28;101678.25;4969606;28;20098;-44
2023/11/16 02:26:11;;;;;;;5.28;1.02;;;;;;;13.87;72.87;101678.97;4969889;28;20027;-43
2023/11/16 02:28:38;;;;;;;4.45;0.70;;;;;;;14.03;72.54;101669.53;4970414;28;20039;-44
2023/11/16 02:31:03;;;;;;;5.35;0.60;;;;;;;14.05;72.34;101673.06;4969785;28;20039;-44
2023/11/16 02:33:29;;;;;;;4.30;0.82;;;;;;;14.11;71.96;101667.88;4970552;28;20039;-45
2023/11/16 02:35:54;;;;;;;6.28;0.90;;;;;;;14.05;72.09;101666.06;4973579;28;20042;-47
2023/11/16 02:38:20;;;;;;;4.90;0.70;;;;;;;14.04;72.05;101664.31;4973869;28;20039;-49
2023/11/16 02:40:46;;;;;;;3.92;0.80;;;;;;;14.05;72.20;101673.06;4974311;28;20401;-46
2023/11/16 02:43:12;;;;;;;3.75;0.70;;;;;;;14.06;72.16;101664.34;4973869;28;20118;-48
2023/11/16 02:45:37;;;;;;;8.88;1.00;;;;;;;14.05;72.13;101662.56;4974073;28;20038;-47
2023/11/16 02:48:04;;;;;;;6.15;0.82;;;;;;;14.02;71.97;101668.69;4973443;28;20035;-48
2023/11/16 02:50:30;;;;;;;10.77;1.10;;;;;;;13.85;72.77;101664.06;4974031;28;20038;-51
2023/11/16 02:52:55;;;;;;;9.20;0.90;;;;;;;13.50;73.21;101663.59;4973737;28;20532;-45
2023/11/16 02:55:24;;;;;;;6.63;0.80;;;;;;;13.75;72.97;101666.59;4955995;28;20081;-49
2023/11/16 02:57:49;;;;;;;5.82;0.80;;;;;;;13.74;72.93;101666.56;4973824;28;20490;-48
2023/11/16 03:00:14;;;;;;;7.07;0.70;;;;;;;13.81;72.46;101657.91;4973216;28;20133;-49
2023/11/16 03:02:41;;;;;;;10.20;0.70;;;;;;;13.56;72.90;101666.31;4973913;28;20089;-45
2023/11/16 03:05:12;;;;;;;6.38;0.70;;;;;;;13.70;72.63;101663.03;4973125;28;20067;-49
2023/11/16 03:07:38;;;;;;;5.35;0.82;;;;;;;13.75;72.29;101673.56;4974085;28;20097;-45
2023/11/16 03:10:07;;;;;;;9.98;0.80;;;;;;;13.92;71.73;101664.16;4973173;28;20062;-47
2023/11/16 03:12:33;;;;;;;7.55;0.80;;;;;;;13.82;72.17;101665.81;4973586;28;20130;-50
2023/11/16 03:14:58;;;;;;;5.03;0.88;;;;;;;13.80;71.88;101662.28;4973364;28;20114;-48
2023/11/16 03:17:24;;;;;;;3.92;0.63;;;;;;;13.88;71.78;101659.75;4973398;28;20122;-46
2023/11/16 03:19:49;;;;;;;6.07;0.70;;;;;;;13.82;71.86;101647.47;4973905;28;20070;-44
2023/11/16 03:22:15;;;;;;;3.10;0.73;;;;;;;13.70;72.16;101659.53;4973681;28;20061;-45
2023/11/16 03:24:40;;;;;;;4.90;0.68;;;;;;;13.61;72.75;101652.41;4973485;28;20464;-46
2023/11/16 03:27:05;;;;;;;3.50;0.80;;;;;;;13.73;72.20;101657.81;4972713;28;20469;-45
2023/11/16 03:29:34;;;;;;;3.67;0.77;;;;;;;13.34;73.61;101652.03;4974215;28;20098;-44
2023/11/16 03:31:59;;;;;;;5.65;0.82;;;;;;;13.70;72.44;101644.69;4976019;28;20042;-46
2023/11/16 03:34:24;;;;;;;2.55;0.60;;;;;;;13.92;71.45;101637.06;4974654;28;20035;-47
2023/11/16 03:36:50;;;;;;;11.57;0.80;;;;;;;13.39;72.03;101632.91;4973703;28;20038;-49
2023/11/16 03:39:17;;;;;;;6.45;0.70;;;;;;;13.75;70.92;101629.00;4972911;28;20030;-46
2023/11/16 03:41:42;;;;;;;5.68;0.70;;;;;;;13.23;72.64;101632.69;4973832;28;20031;-48
2023/11/16 03:44:07;;;;;;;4.25;0.80;;;;;;;13.28;72.52;101625.75;4973222;28;20089;-44
2023/11/16 03:46:33;;;;;;;4.85;0.80;;;;;;;13.32;72.57;101619.69;4972577;28;20034;-45
2023/11/16 03:48:58;;;;;;;2.95;0.70;;;;;;;13.56;71.31;101614.78;4973020;28;20625;-46
2023/11/16 03:51:23;;;;;;;6.88;0.55;;;;;;;13.38;71.77;101614.56;4973403;28;20451;-45
2023/11/16 03:53:48;;;;;;;5.88;0.73;;;;;;;13.11;73.03;101616.75;4973796;28;20121;-51
2023/11/16 03:56:14;;;;;;;3.63;0.60;;;;;;;13.14;73.09;101619.44;4955912;28;20295;-46
2023/11/16 03:58:39;;;;;;;4.88;0.80;;;;;;;13.01;73.70;101627.06;4973046;28;20457;-49
2023/11/16 04:01:04;;;;;;;3.85;0.70;;;;;;;13.27;72.92;101624.00;4972160;28;20486;-46
2023/11/16 04:03:31;;;;;;;3.50;0.80;;;;;;;13.22;73.11;101629.19;4972482;28;20061;-48
2023/11/16 04:05:59;;;;;;;6.70;0.98;;;;;;;13.23;72.77;101628.31;4972373;28;20050;-47
2023/11/16 04:08:25;;;;;;;7.18;0.68;;;;;;;13.31;72.61;101624.06;4971734;28;20035;-44
2023/11/16 04:10:50;;;;;;;6.60;0.68;;;;;;;13.30;72.54;101619.66;4972476;28;20043;-44
2023/11/16 04:13:17;;;;;;;6.95;0.85;;;;;;;13.19;73.29;101621.25;4972077;28;20034;-48
2023/11/16 04:15:45;;;;;;;5.03;0.70;;;;;;;13.38;72.85;101625.91;4972108;28;20539;-45
2023/11/16 04:18:11;;;;;;;5.63;0.70;;;;;;;13.50;72.61;101634.78;4971698;28;20042;-48
2023/11/16 04:20:36;;;;;;;4.68;0.77;;;;;;;13.47;72.71;101625.16;4972349;28;20034;-46
2023/11/16 04:23:01;;;;;;;4.72;0.80;;;;;;;13.58;72.57;101631.41;4971453;28;20456;-45
2023/11/16 04:25:28;;;;;;;4.80;0.70;;;;;;;13.65;72.33;101622.78;4972199;28;20059;-48
2023/11/16 04:28:00;;;;;;;5.57;0.80;;;;;;;13.65;72.30;101609.69;4972071;28;20035;-45
2023/11/16 04:30:30;;;;;;;7.22;0.90;;;;;;;13.68;72.21;101601.84;4971866;28;20038;-47
2023/11/16 04:32:57;;;;;;;6.97;0.75;;;;;;;13.69;72.29;101603.59;4972486;28;20506;-45
2023/11/16 04:35:25;;;;;;;4.93;0.75;;;;;;;13.43;72.63;101614.59;4971419;28;20035;-47
2023/11/16 04:37:50;;;;;;;5.68;0.80;;;;;;;13.33;73.05;101624.97;4971601;28;20126;-45
2023/11/16 04:40:16;;;;;;;5.70;0.88;;;;;;;13.48;72.98;101629.53;4971353;28;20114;-43
2023/11/16 04:42:42;;;;;;;2.83;0.60;;;;;;;13.62;72.37;101621.84;4971886;28;20426;-44
2023/11/16 04:45:12;;;;;;;3.33;0.60;;;;;;;13.73;71.90;101615.00;4953929;28;20046;-44
2023/11/16 04:47:45;;;;;;;3.00;0.70;;;;;;;13.77;71.81;101608.94;4971881;28;20043;-46
2023/11/16 04:50:13;;;;;;;5.82;0.85;;;;;;;13.69;71.86;101602.72;4971303;28;20497;-44
2023/11/16 04:52:39;;;;;;;3.88;0.80;;;;;;;13.62;72.24;101601.78;4971713;28;20038;-44
2023/11/16 04:55:05;;;;;;;5.80;0.85;;;;;;;13.60;72.15;101600.00;4971037;28;20043;-48
2023/11/16 04:57:30;;;;;;;2.65;0.68;;;;;;;13.71;72.29;101593.16;4970993;28;20039;-45
2023/11/16 04:59:56;;;;;;;6.28;0.85;;;;;;;13.70;71.77;101586.16;4971413;28;20035;-46
2023/11/16 05:02:21;;;;;;;4.35;0.80;;;;;;;13.72;71.89;101594.91;4970875;28;20035;-45
2023/11/16 05:04:47;;;;;;;7.07;1.00;;;;;;;13.72;72.00;101602.78;4971152;28;20027;-43
2023/11/16 05:07:13;;;;;;;6.13;1.10;;;;;;;13.69;72.12;101608.84;4953531;28;20038;-47
2023/11/16 05:09:39;;;;;;;5.22;1.02;;;;;;;13.68;72.10;101603.59;4971333;28;20548;-44
2023/11/16 05:12:05;;;;;;;4.03;0.90;;;;;;;13.65;72.26;101606.19;4970693;28;20146;-51
2023/11/16 05:14:30;;;;;;;4.90;0.90;;;;;;;13.58;72.33;101615.69;4953613;28;20109;-48
2023/11/16 05:16:56;;;;;;;3.85;0.70;;;;;;;13.49;72.65;101606.81;4971179;28;20038;-46
2023/11/16 05:19:21;;;;;;;5.35;0.80;;;;;;;13.59;72.49;101601.75;4970829;28;20039;-46
2023/11/16 05:21:48;;;;;;;5.05;0.80;;;;;;;13.65;72.17;101598.31;4971310;28;20042;-48
2023/11/16 05:24:14;;;;;;;5.15;0.70;;;;;;;13.69;72.11;101594.88;4970754;28;20431;-46
2023/11/16 05:26:39;;;;;;;5.97;1.00;;;;;;;13.73;72.15;101592.28;4970981;28;20031;-46
2023/11/16 05:29:05;;;;;;;6.50;0.85;;;;;;;13.72;72.03;101579.19;4970689;28;20047;-44
2023/11/16 05:31:30;;;;;;;3.70;0.77;;;;;;;13.63;72.25;101587.81;4971221;28;20038;-43
2023/11/16 05:33:56;;;;;;;4.45;1.05;;;;;;;13.63;72.35;101590.44;4971188;28;20031;-45
2023/11/16 05:36:22;;;;;;;8.13;1.10;;;;;;;13.55;72.58;101599.94;4970477;28;20589;-47
2023/11/16 05:38:47;;;;;;;7.45;1.30;;;;;;;13.52;72.57;101606.88;4953656;28;20062;-48
2023/11/16 05:41:13;;;;;;;3.97;0.70;;;;;;;13.55;72.65;101602.53;4970716;28;20405;-45
2023/11/16 05:43:39;;;;;;;4.63;0.90;;;;;;;13.65;72.53;101601.81;4953748;28;20070;-46
2023/11/16 05:46:05;;;;;;;7.05;1.20;;;;;;;13.68;72.28;101599.22;4970269;28;20098;-45
2023/11/16 05:48:30;;;;;;;3.35;0.80;;;;;;;13.73;72.20;101594.03;4970833;28;20500;-44
2023/11/16 05:50:57;;;;;;;3.15;1.08;;;;;;;13.73;72.20;101594.91;4970768;28;20042;-46
2023/11/16 05:53:22;;;;;;;5.88;1.10;;;;;;;13.75;72.28;101584.47;4953055;28;20063;-46
2023/11/16 05:55:48;;;;;;;3.00;1.00;;;;;;;13.80;72.14;101582.75;4971111;28;20109;-43
2023/11/16 05:58:13;;;;;;;6.72;1.20;;;;;;;13.80;72.38;101572.28;4970268;28;20054;-46
2023/11/16 06:00:39;;;;;;;6.60;1.38;;;;;;;13.80;72.31;101567.03;4971456;28;20046;-44
2023/11/16 06:03:05;;;;;;;5.20;1.40;;;;;;;13.84;72.08;101560.09;4970661;28;20466;-45
2023/11/16 06:05:33;;;;;;;4.93;1.40;;;;;;;13.78;72.23;101553.91;4971536;28;20034;-46
2023/11/16 06:07:58;;;;;;;6.38;1.30;;;;;;;13.76;72.03;101560.91;4970734;28;20089;-47
2023/11/16 06:10:24;;;;;;;6.53;1.13;;;;;;;13.77;72.25;101562.66;4974400;28;20429;-44
2023/11/16 06:12:49;;;;;;;4.95;1.10;;;;;;;13.79;72.13;101558.28;4975457;28;20043;-47
2023/11/16 06:15:15;;;;;;;5.50;1.20;;;;;;;13.79;72.10;101553.06;4974322;28;20045;-45
2023/11/16 06:17:41;;;;;;;3.55;1.02;;;;;;;13.80;72.16;101548.69;4974567;28;20065;-44
2023/11/16 06:20:10;;;;;;;6.20;1.23;;;;;;;13.81;72.22;101551.34;4973977;28;20031;-44
2023/11/16 06:22:40;;;;;;;5.43;1.27;;;;;;;13.87;71.85;101549.63;4974229;28;20039;-47
2023/11/16 06:25:10;;;;;;;5.28;1.20;;;;;;;13.84;72.03;101542.66;4973831;28;20584;-49
2023/11/16 06:27:36;;;;;;;5.03;1.05;;;;;;;13.83;72.11;101543.50;4974241;28;20043;-50
2023/11/16 06:30:02;;;;;;;3.85;1.05;;;;;;;13.80;72.07;101544.34;4973949;28;20070;-51
2023/11/16 06:32:27;;;;;;;7.18;1.33;;;;;;;13.82;72.07;101528.63;4974467;28;20066;-45
2023/11/16 06:34:54;;;;;;;4.97;1.10;;;;;;;13.81;71.97;101533.00;4974200;28;20150;-46
2023/11/16 06:37:20;;;;;;;7.40;1.20;;;;;;;13.80;72.00;101528.59;4973423;28;20525;-50
2023/11/16 06:39:45;;;;;;;5.40;1.23;;;;;;;13.79;71.99;101526.84;4974083;28;20063;-45
2023/11/16 06:42:10;;;;;;;7.72;1.85;;;;;;;13.79;71.94;101528.59;4973501;28;20082;-46
2023/11/16 06:44:35;;;;;;;6.63;1.27;;;;;;;13.81;71.68;101519.00;4974004;28;20401;-44
2023/11/16 06:47:02;;;;;;;6.70;1.40;;;;;;;13.79;71.61;101531.22;4973482;28;20050;-46
2023/11/16 06:49:28;;;;;;;14.07;6.63;;;;;;;13.76;71.83;101529.44;4974579;28;20041;-46
2023/11/16 06:51:54;;;;;;;10.75;3.20;;;;;;;13.80;71.51;101528.59;4975257;28;20035;-45
2023/11/16 06:54:21;;;;;;;7.68;3.20;;;;;;;13.75;71.65;101526.81;4974592;28;20117;-45
2023/11/16 06:56:49;;;;;;;6.80;2.40;;;;;;;13.75;71.58;101524.19;4974910;28;20121;-44
2023/11/16 06:59:19;;;;;;;4.38;1.40;;;;;;;13.85;71.24;101525.16;4973198;28;20043;-47
2023/11/16 07:01:45;;;;;;;5.88;1.50;;;;;;;13.73;71.56;101523.28;4975166;28;20066;-45
2023/11/16 07:04:11;;;;;;;5.35;1.52;;;;;;;13.71;71.74;101520.66;4974633;28;20192;-44
2023/11/16 07:06:37;;;;;;;9.65;1.70;;;;;;;13.65;72.02;101517.09;4974402;28;20138;-44
2023/11/16 07:09:02;;;;;;;3.38;1.25;;;;;;;13.73;71.70;101524.16;4973177;28;20031;-49
2023/11/16 07:11:28;;;;;;;6.38;1.60;;;;;;;13.75;71.64;101514.59;4973820;28;20515;-47
2023/11/16 07:13:53;;;;;;;8.50;1.33;;;;;;;13.75;71.63;101516.31;4973744;28;20093;-50
2023/11/16 07:16:19;;;;;;;6.13;1.40;;;;;;;13.78;71.06;101511.97;4972814;28;20035;-44
2023/11/16 07:18:47;;;;;;;7.45;1.77;;;;;;;13.58;70.93;101505.66;4974673;28;20111;-46
2023/11/16 07:21:14;;;;;;;8.32;1.58;;;;;;;13.82;70.38;101511.16;4972887;28;20446;-45
2023/11/16 07:23:41;;;;;;;7.57;1.50;;;;;;;13.87;70.38;101507.69;4974426;28;20037;-44
2023/11/16 07:26:09;;;;;;;8.85;1.67;;;;;;;13.83;70.48;101506.81;4972873;28;20046;-47
2023/11/16 07:28:35;;;;;;;9.75;2.17;;;;;;;13.79;70.28;101498.00;4972636;28;20433;-49
2023/11/16 07:31:01;;;;;;;6.43;2.03;;;;;;;13.79;70.40;101503.25;4989567;28;20042;-51
2023/11/16 07:33:27;;;;;;;7.97;2.50;;;;;;;13.79;70.31;101497.13;4995802;28;20038;-49
2023/11/16 07:35:52;;;;;;;8.82;2.60;;;;;;;13.78;70.27;101493.63;5011347;28;20412;-48
2023/11/16 07:38:18;;;;;;;8.65;2.70;;;;;;;13.80;70.18;101497.16;5011021;28;20045;-45
2023/11/16 07:40:43;;;;;;;7.82;2.67;;;;;;;13.80;70.31;101502.41;4997585;28;20034;-48
2023/11/16 07:43:09;;;;;;;9.13;2.80;;;;;;;13.79;70.61;101502.38;4991741;28;20452;-47
2023/11/16 07:45:34;;;;;;;11.80;2.70;;;;;;;13.87;70.70;101508.59;4992054;28;20038;-46
2023/11/16 07:48:02;;;;;;;7.32;2.40;;;;;;;13.87;70.74;101494.59;4991018;28;20042;-48
2023/11/16 07:50:31;;;;;;;7.40;2.60;;;;;;;13.94;70.77;101504.28;4991655;28;20560;-51
2023/11/16 07:52:57;;;;;;;7.68;2.30;;;;;;;13.93;70.99;101502.53;4992031;28;20077;-45
2023/11/16 07:55:25;;;;;;;8.63;2.40;;;;;;;14.01;70.87;101498.25;5010630;28;20180;-47
2023/11/16 07:57:52;;;;;;;9.25;2.63;;;;;;;13.99;70.68;101485.09;4999951;28;20045;-45
2023/11/16 08:00:26;;;;;;;9.35;2.67;;;;;;;14.15;70.19;101486.09;4990855;28;20058;-48
2023/11/16 08:05:41;;;;;;;5.93;2.60;;;;;;;14.00;69.97;101473.75;4991436;28;20045;-45
2023/11/16 08:08:07;;;;;;;9.93;2.80;;;;;;;14.07;69.88;101467.72;4989832;28;20508;-45
2023/11/16 08:10:34;;;;;;;8.90;3.08;;;;;;;14.08;69.88;101460.72;4991513;28;20031;-44
2023/11/16 08:13:00;;;;;;;7.78;2.90;;;;;;;14.16;69.45;101464.28;4991102;28;20045;-45
2023/11/16 08:15:26;;;;;;;7.22;2.80;;;;;;;14.16;69.55;101457.28;4995014;28;20446;-50
2023/11/16 08:17:55;;;;;;;7.03;2.58;;;;;;;14.10;69.90;101453.72;5010918;28;20034;-47
2023/11/16 08:20:22;;;;;;;6.38;2.72;;;;;;;14.07;69.81;101446.75;5010473;28;20061;-44
2023/11/16 08:22:49;;;;;;;7.78;3.08;;;;;;;14.06;70.04;101447.59;4990831;28;20022;-47
2023/11/16 08:25:14;;;;;;;9.90;3.88;;;;;;;14.09;70.14;101447.59;5010044;28;20042;-44
2023/11/16 08:27:39;;;;;;;7.28;3.47;;;;;;;14.20;69.86;101448.59;5010606;28;20034;-45
2023/11/16 08:30:08;;;;;;;11.93;3.97;;;;;;;14.21;69.93;101445.09;4989285;28;20038;-48
2023/11/16 08:32:33;;;;;;;9.68;4.15;;;;;;;14.31;69.80;101440.81;4993996;28;20076;-49
2023/11/16 08:34:59;;;;;;;12.93;4.80;;;;;;;14.38;69.58;101433.88;5010634;28;20061;-50
2023/11/16 08:37:25;;;;;;;8.18;4.63;;;;;;;14.38;69.61;101441.75;5010537;28;20483;-45
2023/11/16 08:39:51;;;;;;;11.38;5.30;;;;;;;14.50;69.09;101452.34;4999729;28;20042;-44
2023/11/16 08:42:17;;;;;;;10.73;4.82;;;;;;;14.53;69.02;101447.97;4990631;28;20597;-45
2023/11/16 08:44:44;;;;;;;11.52;4.72;;;;;;;14.50;68.92;101444.47;4991229;28;20669;-44
2023/11/16 08:47:14;;;;;;;10.43;5.15;;;;;;;14.56;68.54;101440.13;4990332;28;20030;-44
2023/11/16 08:49:41;;;;;;;14.32;4.97;;;;;;;14.56;68.38;101444.50;4991678;28;20038;-48
2023/11/16 08:52:07;;;;;;;11.07;5.25;;;;;;;14.51;68.11;101435.72;4990456;28;20117;-46
2023/11/16 08:54:33;;;;;;;10.82;5.28;;;;;;;14.55;67.88;101435.75;4990912;28;20026;-45
2023/11/16 08:56:59;;;;;;;11.82;5.15;;;;;;;14.52;68.43;101442.69;4990554;28;20603;-46
2023/11/16 08:59:24;;;;;;;15.60;5.45;;;;;;;14.52;68.54;101440.09;4990374;28;20038;-44
2023/11/16 09:01:51;;;;;;;10.20;5.18;;;;;;;14.57;68.68;101439.28;4990916;28;20034;-45
2023/11/16 09:04:17;;;;;;;13.20;5.22;;;;;;;14.48;68.38;101439.19;4990053;28;20034;-46
2023/11/16 09:06:44;;;;;;;9.43;4.65;;;;;;;14.51;68.25;101440.97;4991108;28;20124;-48
2023/11/16 09:09:33;;;;;;;11.65;4.75;;;;;;;14.52;67.77;101440.97;4990306;28;20034;-44
2023/11/16 09:11:57;;;;;;;12.90;4.68;;;;;;;14.30;67.95;101443.41;4990647;28;20038;-48
2023/11/16 09:14:22;;;;;;;11.98;5.00;;;;;;;14.35;67.52;101445.19;4989827;28;20030;-44
2023/11/16 09:16:49;;;;;;;12.10;4.80;;;;;;;14.41;67.53;101450.50;4988880;28;20042;-46
2023/11/16 09:19:14;;;;;;;13.73;5.10;;;;;;;14.53;67.44;101447.97;4988394;28;20031;-44
2023/11/16 09:21:40;;;;;;;11.73;5.05;;;;;;;14.53;67.58;101444.47;4994777;28;20061;-47
2023/11/16 09:24:05;;;;;;;11.23;5.45;;;;;;;14.33;68.29;101446.94;5009827;28;20052;-51
2023/11/16 09:26:33;;;;;;;9.90;4.95;;;;;;;14.54;67.47;101447.09;5009707;28;20440;-46
2023/11/16 09:28:59;;;;;;;10.63;5.32;;;;;;;14.50;67.22;101444.47;5009819;28;20041;-46
2023/11/16 09:31:24;;;;;;;9.15;4.25;;;;;;;14.65;67.34;101452.41;5006125;28;20039;-46
2023/11/16 09:33:51;;;;;;;10.30;5.30;;;;;;;14.46;67.10;101453.16;4990521;28;20038;-48
2023/11/16 09:36:17;;;;;;;9.43;5.05;;;;;;;14.23;67.76;101448.59;4989277;28;20031;-48
2023/11/16 09:38:46;;;;;;;9.77;5.18;;;;;;;14.37;67.35;101442.59;4989908;28;20031;-47
2023/11/16 09:41:21;;;;;;;12.50;5.22;;;;;;;14.41;66.87;101436.50;4989759;28;20142;-46
2023/11/16 09:43:51;;;;;;;13.60;5.57;;;;;;;14.36;67.35;101432.97;4989517;28;20030;-47
2023/11/16 09:46:22;;;;;;;10.15;4.95;;;;;;;14.35;67.33;101432.06;4989512;28;20439;-48
2023/11/16 09:48:53;;;;;;;13.05;5.70;;;;;;;14.41;67.21;101433.91;4990470;28;20077;-46
2023/11/16 09:51:20;;;;;;;10.88;6.20;;;;;;;14.05;68.09;101440.59;4990135;28;20065;-49
2023/11/16 09:53:50;;;;;;;10.57;5.82;;;;;;;14.45;66.89;101438.31;4990046;28;20035;-46
2023/11/16 09:56:20;;;;;;;10.52;5.68;;;;;;;14.22;67.41;101440.72;4989222;28;20038;-46
2023/11/16 09:58:47;;;;;;;16.15;6.60;;;;;;;14.32;67.34;101439.06;4990659;28;20038;-45
2023/11/16 10:01:14;;;;;;;12.38;6.60;;;;;;;14.28;67.60;101440.75;5006399;28;20077;-45
2023/11/16 10:03:40;;;;;;;12.82;6.75;;;;;;;14.35;67.62;101439.94;5010202;28;20489;-47
2023/11/16 10:06:10;;;;;;;12.77;7.10;;;;;;;14.23;67.78;101427.63;5009907;28;20129;-45
2023/11/16 10:08:39;;;;;;;16.23;8.70;;;;;;;13.95;68.28;101427.41;5009725;28;20030;-48
2023/11/16 10:11:05;;;;;;;17.67;8.80;;;;;;;13.82;68.09;101427.31;5010139;28;20034;-47
2023/11/16 10:13:32;;;;;;;15.27;8.80;;;;;;;13.71;68.71;101422.84;5009676;28;20052;-47
2023/11/16 10:16:06;;;;;;;18.90;8.70;;;;;;;14.15;67.38;101418.81;5010108;28;20057;-49
2023/11/16 10:18:32;;;;;;;16.35;9.10;;;;;;;14.24;67.20;101415.41;5009855;28;20065;-47
2023/11/16 10:20:57;;;;;;;15.95;8.95;;;;;;;14.41;66.48;101407.66;5009990;28;20034;-51
2023/11/16 10:23:23;;;;;;;17.20;9.48;;;;;;;14.43;66.67;101409.44;5010628;28;20049;-48
2023/11/16 10:25:50;;;;;;;22.83;9.55;;;;;;;14.27;66.61;101415.44;5009534;28;20104;-45
2023/11/16 10:28:22;;;;;;;15.35;8.70;;;;;;;14.49;65.90;101401.59;5008701;28;20562;-45
2023/11/16 10:30:54;;;;;;;17.60;9.27;;;;;;;14.55;65.56;101399.00;5009284;28;20640;-46
2023/11/16 10:33:23;;;;;;;18.58;9.82;;;;;;;14.58;65.54;101390.25;5009183;28;20092;-44
2023/11/16 10:35:49;;;;;;;20.92;9.07;;;;;;;14.64;65.50;101397.31;4992474;28;20034;-49
2023/11/16 10:38:16;;;;;;;17.20;9.27;;;;;;;14.65;65.62;101384.19;5009237;28;20038;-45
2023/11/16 10:40:47;;;;;;;18.77;9.60;;;;;;;14.60;65.89;101384.16;5009986;28;20045;-44
2023/11/16 10:43:17;;;;;;;17.67;9.52;;;;;;;14.30;66.24;101376.09;5008602;28;20062;-45
2023/11/16 10:45:43;;;;;;;18.85;9.50;;;;;;;14.26;65.91;101379.56;5009061;28;20038;-45
2023/11/16 10:48:09;;;;;;;17.73;8.63;;;;;;;14.26;65.45;101376.94;5008383;28;20030;-47
2023/11/16 10:50:35;;;;;;;18.10;9.63;;;;;;;14.50;64.83;101373.63;5009311;28;20152;-52
2023/11/16 10:53:02;;;;;;;18.75;10.13;;;;;;;14.18;65.61;101360.28;4996514;28;20038;-44
2023/11/16 10:55:30;;;;;;;18.92;10.40;;;;;;;14.43;64.91;101358.72;4992861;28;20179;-43
2023/11/16 10:58:01;;;;;;;21.67;10.48;;;;;;;14.44;64.84;101349.97;4985258;28;20038;-46
2023/11/16 11:00:29;;;;;;;21.10;11.13;;;;;;;14.25;64.94;101353.34;4975315;28;20035;-46
2023/11/16 11:02:57;;;;;;;17.75;10.07;;;;;;;14.51;65.37;101342.16;4972680;28;20125;-43
2023/11/16 11:05:23;;;;;;;23.35;11.15;;;;;;;14.48;65.10;101336.00;4972833;28;20043;-46
2023/11/16 11:07:49;;;;;;;19.90;10.52;;;;;;;14.45;65.64;101334.25;4973109;28;20113;-45
2023/11/16 11:10:15;;;;;;;23.13;10.90;;;;;;;13.97;66.95;101331.28;4971456;28;20053;-46
2023/11/16 11:12:47;;;;;;;22.00;11.07;;;;;;;14.31;65.18;101325.41;4973910;28;20031;-46
2023/11/16 11:15:36;;;;;;;20.17;10.70;;;;;;;14.27;65.16;101314.88;5008252;28;20350;-45
2023/11/16 11:18:04;;;;;;;21.58;10.23;;;;;;;13.98;65.86;101312.94;5012819;28;20042;-46
2023/11/16 11:20:39;;;;;;;21.20;10.52;;;;;;;14.11;65.20;101313.91;5004502;28;20109;-47
2023/11/16 11:23:08;;;;;;;20.23;10.43;;;;;;;14.12;65.18;101308.69;4992937;28;20045;-46